Time;durP1;ratioP1;P1;durP2;ratioP2;P2;SDS_P1;SDS_P2;PMS_P1;PMS_P2;Temp;Humidity;BMP_temperature;BMP_pressure;BME280_temperature;BME280_humidity;BME280_pressure;Samples;Min_cycle;Max_cycle;Signal;HPM_P1;HPM_P2
2023/06/19 00:02:10;;;;;;;7.60;4.53;;;;;;;18.76;79.21;99875.47;4918109;29;20056;-46
2023/06/19 00:04:37;;;;;;;6.55;3.65;;;;;;;18.73;79.10;99870.69;4918021;29;20115;-46
2023/06/19 00:07:04;;;;;;;9.85;4.45;;;;;;;18.72;79.14;99869.88;4918175;29;20100;-47
2023/06/19 00:09:32;;;;;;;11.00;4.10;;;;;;;18.71;79.24;99871.13;4918156;29;20071;-46
2023/06/19 00:11:59;;;;;;;11.32;4.65;;;;;;;18.72;79.60;99875.50;4917247;29;20046;-47
2023/06/19 00:14:26;;;;;;;9.77;4.13;;;;;;;18.74;79.52;99869.47;4917518;29;20536;-47
2023/06/19 00:16:53;;;;;;;7.68;3.90;;;;;;;18.76;79.49;99864.25;4917815;29;20514;-46
2023/06/19 00:19:20;;;;;;;5.45;4.10;;;;;;;18.72;79.54;99866.28;4917242;29;20108;-46
2023/06/19 00:21:47;;;;;;;8.27;4.00;;;;;;;18.67;79.74;99864.75;4917590;29;20470;-46
2023/06/19 00:24:14;;;;;;;18.40;5.72;;;;;;;18.66;80.18;99863.19;4917737;29;20048;-46
2023/06/19 00:26:43;;;;;;;8.63;3.97;;;;;;;18.66;80.03;99865.19;4917653;29;20578;-46
2023/06/19 00:29:10;;;;;;;7.68;3.40;;;;;;;18.66;79.99;99859.56;4917071;29;20573;-46
2023/06/19 00:31:37;;;;;;;8.88;3.88;;;;;;;18.66;79.89;99854.78;4917183;29;20812;-47
2023/06/19 00:34:03;;;;;;;5.97;3.72;;;;;;;18.69;79.67;99858.75;4904933;29;20044;-46
2023/06/19 00:36:30;;;;;;;10.05;3.60;;;;;;;18.67;79.75;99858.34;4917368;29;20414;-46
2023/06/19 00:38:57;;;;;;;6.35;2.85;;;;;;;18.71;79.40;99851.50;4905694;29;20048;-46
2023/06/19 00:41:27;;;;;;;4.53;2.80;;;;;;;18.68;79.25;99852.34;4917508;29;20036;-46
2023/06/19 00:43:54;;;;;;;5.85;3.03;;;;;;;18.64;78.94;99851.56;4917860;29;20068;-47
2023/06/19 00:46:21;;;;;;;7.38;3.30;;;;;;;18.60;78.61;99850.84;4916587;29;20474;-46
2023/06/19 00:48:50;;;;;;;4.72;2.95;;;;;;;18.58;78.47;99842.06;4916026;29;20138;-46
2023/06/19 00:51:16;;;;;;;5.97;2.83;;;;;;;18.58;78.71;99839.25;4916462;29;20047;-46
2023/06/19 00:53:43;;;;;;;8.13;3.28;;;;;;;18.59;78.51;99843.63;4916450;29;20131;-48
2023/06/19 00:56:11;;;;;;;8.32;3.03;;;;;;;18.60;78.42;99839.63;4916975;29;20060;-46
2023/06/19 00:58:38;;;;;;;5.03;3.42;;;;;;;18.60;78.58;99838.81;4917346;29;20048;-46
2023/06/19 01:01:05;;;;;;;5.30;3.08;;;;;;;18.62;78.58;99842.00;4917048;29;20056;-46
2023/06/19 01:03:37;;;;;;;8.57;3.10;;;;;;;18.56;78.22;99846.50;4916333;29;20514;-46
2023/06/19 01:06:14;;;;;;;6.88;2.75;;;;;;;18.51;78.62;99833.72;4917399;29;20045;-46
2023/06/19 01:08:43;;;;;;;6.88;2.85;;;;;;;18.47;78.35;99837.78;4917123;29;20506;-46
2023/06/19 01:11:13;;;;;;;8.38;3.10;;;;;;;18.45;78.73;99831.81;4916693;29;20044;-47
2023/06/19 01:13:58;;;;;;;5.60;3.45;;;;;;;18.37;78.53;99836.72;4917006;29;20056;-46
2023/06/19 01:16:26;;;;;;;3.63;2.40;;;;;;;18.33;78.75;99835.13;4899881;29;20052;-46
2023/06/19 01:18:54;;;;;;;9.10;2.55;;;;;;;18.29;78.72;99835.22;4916103;29;20048;-46
2023/06/19 01:21:21;;;;;;;7.55;3.30;;;;;;;18.24;78.81;99838.47;4916305;29;20048;-46
2023/06/19 01:23:48;;;;;;;5.53;2.53;;;;;;;18.21;78.99;99839.31;4899890;29;20122;-47
2023/06/19 01:26:16;;;;;;;6.55;2.30;;;;;;;18.16;78.99;99832.13;4916594;29;20431;-46
2023/06/19 01:28:45;;;;;;;7.63;2.92;;;;;;;18.12;79.12;99830.59;4916498;29;20046;-46
2023/06/19 01:31:18;;;;;;;5.72;2.85;;;;;;;18.12;79.43;99830.59;4916654;29;20068;-46
2023/06/19 01:33:49;;;;;;;6.22;3.22;;;;;;;18.12;79.28;99830.59;4916769;29;20100;-46
2023/06/19 01:36:18;;;;;;;4.28;2.35;;;;;;;18.09;79.40;99829.44;4916750;29;20048;-46
2023/06/19 01:38:48;;;;;;;7.93;3.03;;;;;;;18.08;79.46;99827.06;4915669;29;20044;-46
2023/06/19 01:41:17;;;;;;;7.03;2.63;;;;;;;18.07;79.69;99825.47;4916273;29;20513;-46
2023/06/19 01:43:45;;;;;;;8.52;3.47;;;;;;;18.06;79.97;99821.84;4916530;29;20040;-46
2023/06/19 01:46:12;;;;;;;6.53;2.72;;;;;;;18.07;80.02;99820.66;4916345;29;20105;-46
2023/06/19 01:48:39;;;;;;;8.18;3.40;;;;;;;18.10;80.31;99827.44;4915476;29;20414;-46
2023/06/19 01:51:07;;;;;;;9.52;3.30;;;;;;;18.12;80.17;99825.00;4916172;29;20134;-46
2023/06/19 01:53:36;;;;;;;6.07;3.15;;;;;;;18.11;80.48;99824.19;4916223;29;20067;-46
2023/06/19 01:56:04;;;;;;;5.57;3.17;;;;;;;18.09;80.56;99825.81;4911379;29;20112;-46
2023/06/19 01:58:31;;;;;;;5.85;3.05;;;;;;;18.09;80.63;99820.22;4916283;29;20605;-46
2023/06/19 02:00:57;;;;;;;8.38;3.63;;;;;;;18.05;80.54;99817.47;4915838;29;20052;-46
2023/06/19 02:03:25;;;;;;;12.50;3.85;;;;;;;18.02;80.79;99814.72;4915982;29;20052;-46
2023/06/19 02:05:52;;;;;;;7.20;3.10;;;;;;;17.98;80.62;99820.34;4916195;29;20072;-46
2023/06/19 02:08:19;;;;;;;7.03;3.10;;;;;;;17.95;80.77;99815.56;4915793;29;20075;-47
2023/06/19 02:10:46;;;;;;;10.65;3.72;;;;;;;17.93;80.75;99806.00;4913841;29;20052;-46
2023/06/19 02:13:13;;;;;;;7.85;4.15;;;;;;;17.93;80.85;99803.19;4887967;29;20077;-46
2023/06/19 02:15:40;;;;;;;7.20;3.33;;;;;;;17.88;80.81;99809.25;4915430;29;20063;-48
2023/06/19 02:18:08;;;;;;;7.35;3.55;;;;;;;17.86;80.93;99817.28;4915224;29;20103;-46
2023/06/19 02:20:35;;;;;;;6.60;3.10;;;;;;;17.85;80.90;99802.50;4915663;29;20448;-46
2023/06/19 02:23:02;;;;;;;6.72;3.25;;;;;;;17.83;80.71;99806.94;4913727;29;20097;-46
2023/06/19 02:25:30;;;;;;;6.63;3.20;;;;;;;17.81;80.95;99806.56;4914120;29;20059;-47
2023/06/19 02:27:56;;;;;;;4.80;3.05;;;;;;;17.73;80.90;99803.03;4914816;29;20104;-47
2023/06/19 02:30:23;;;;;;;6.40;3.75;;;;;;;17.70;81.28;99798.28;4915427;29;20056;-46
2023/06/19 02:32:50;;;;;;;5.30;3.03;;;;;;;17.69;81.07;99802.25;4915914;29;20052;-46
2023/06/19 02:35:17;;;;;;;5.90;2.97;;;;;;;17.66;81.24;99797.50;4915302;29;20394;-48
2023/06/19 02:37:46;;;;;;;12.50;4.00;;;;;;;17.62;81.30;99796.75;4915381;29;20056;-47
2023/06/19 02:40:14;;;;;;;6.78;3.17;;;;;;;17.53;81.50;99800.03;4915336;29;20048;-47
2023/06/19 02:42:41;;;;;;;7.32;3.90;;;;;;;17.52;81.74;99804.03;4915440;29;20084;-46
2023/06/19 02:45:08;;;;;;;7.07;3.65;;;;;;;17.53;81.75;99794.44;4914277;29;20495;-46
2023/06/19 02:47:35;;;;;;;9.68;3.20;;;;;;;17.50;81.58;99806.41;4898451;29;20127;-46
2023/06/19 02:50:03;;;;;;;7.70;3.22;;;;;;;17.47;81.63;99801.66;4915123;29;20088;-46
2023/06/19 02:52:30;;;;;;;7.10;3.10;;;;;;;17.45;81.69;99798.47;4914428;29;20052;-46
2023/06/19 02:54:57;;;;;;;8.70;3.33;;;;;;;17.44;81.83;99808.09;4915103;29;20100;-46
2023/06/19 02:57:25;;;;;;;8.88;3.10;;;;;;;17.43;82.00;99805.69;4915484;29;20502;-48
2023/06/19 02:59:52;;;;;;;11.07;4.00;;;;;;;17.39;82.31;99805.75;4914991;29;20095;-46
2023/06/19 03:02:19;;;;;;;6.15;3.25;;;;;;;17.36;82.55;99797.38;4939375;23;20055;-51
2023/06/19 03:04:46;;;;;;;7.07;3.47;;;;;;;17.39;82.52;99800.16;4915062;29;20135;-46
2023/06/19 03:07:16;;;;;;;7.78;3.58;;;;;;;17.37;82.50;99796.16;4914985;29;20112;-46
2023/06/19 03:09:43;;;;;;;6.72;3.25;;;;;;;17.34;82.88;99794.97;4915150;29;20052;-45
2023/06/19 03:12:10;;;;;;;9.30;3.13;;;;;;;17.31;83.00;99797.81;4915012;29;20494;-46
2023/06/19 03:14:37;;;;;;;5.35;3.45;;;;;;;17.27;83.00;99795.06;4912698;29;20052;-46
2023/06/19 03:17:04;;;;;;;7.78;3.92;;;;;;;17.23;83.22;99794.31;4914660;29;20055;-46
2023/06/19 03:19:31;;;;;;;5.72;3.15;;;;;;;17.19;83.50;99796.31;4914293;29;20131;-48
2023/06/19 03:21:58;;;;;;;6.82;2.72;;;;;;;17.16;83.71;99797.16;4914678;29;20518;-47
2023/06/19 03:24:26;;;;;;;6.00;3.10;;;;;;;17.13;83.96;99792.38;4915108;29;20052;-46
2023/06/19 03:26:53;;;;;;;7.53;3.17;;;;;;;17.12;84.06;99803.97;4914915;29;20068;-48
2023/06/19 03:29:19;;;;;;;7.78;3.47;;;;;;;17.12;83.99;99796.38;4915019;29;20048;-46
2023/06/19 03:31:46;;;;;;;6.70;3.30;;;;;;;17.11;84.04;99800.38;4915012;29;20112;-46
2023/06/19 03:34:13;;;;;;;7.38;3.25;;;;;;;17.10;83.88;99803.59;4914818;29;20052;-45
2023/06/19 03:36:40;;;;;;;7.13;3.35;;;;;;;17.08;84.00;99806.78;4897555;29;20048;-46
2023/06/19 03:39:07;;;;;;;6.68;3.20;;;;;;;17.08;83.97;99806.03;4914786;29;20053;-46
2023/06/19 03:41:34;;;;;;;8.07;3.83;;;;;;;17.07;83.88;99805.22;4914606;29;20566;-46
2023/06/19 03:44:00;;;;;;;13.02;3.65;;;;;;;17.07;83.43;99805.22;4913829;29;20374;-47
2023/06/19 03:46:27;;;;;;;9.23;4.00;;;;;;;17.06;83.39;99809.22;4914758;29;20147;-46
2023/06/19 03:48:54;;;;;;;6.57;3.22;;;;;;;17.04;83.29;99794.84;4914555;29;20052;-45
2023/06/19 03:51:21;;;;;;;9.77;5.07;;;;;;;17.03;83.25;99799.66;4914562;29;20109;-45
2023/06/19 03:53:47;;;;;;;11.65;3.85;;;;;;;17.01;83.26;99806.88;4913712;29;20491;-46
2023/06/19 03:56:15;;;;;;;8.30;3.35;;;;;;;16.99;83.04;99807.28;4914361;29;20055;-46
2023/06/19 03:58:42;;;;;;;6.07;2.90;;;;;;;16.96;83.35;99804.50;4914476;29;20597;-47
2023/06/19 04:01:09;;;;;;;10.35;3.15;;;;;;;16.94;83.38;99809.72;4914426;29;20058;-46
2023/06/19 04:03:36;;;;;;;8.40;3.55;;;;;;;16.89;83.34;99810.94;4914687;29;20079;-45
2023/06/19 04:06:05;;;;;;;14.48;3.78;;;;;;;16.87;83.43;99807.75;4914210;29;20075;-46
2023/06/19 04:08:33;;;;;;;14.15;4.50;;;;;;;16.88;83.33;99809.34;4914605;29;20052;-46
2023/06/19 04:11:00;;;;;;;10.10;3.10;;;;;;;16.89;83.17;99810.16;4906718;29;20479;-46
2023/06/19 04:13:27;;;;;;;8.50;4.22;;;;;;;16.90;83.09;99815.31;4913272;29;20051;-45
2023/06/19 04:15:54;;;;;;;5.88;3.33;;;;;;;16.89;83.06;99821.34;4914299;29;20108;-46
2023/06/19 04:18:21;;;;;;;9.90;4.05;;;;;;;16.88;83.11;99825.34;4914432;29;20104;-47
2023/06/19 04:20:47;;;;;;;8.00;2.83;;;;;;;16.84;83.27;99821.75;4914524;29;20044;-45
2023/06/19 04:23:14;;;;;;;10.93;3.45;;;;;;;16.82;83.44;99827.75;4922208;29;20052;-45
2023/06/19 04:25:41;;;;;;;8.82;3.22;;;;;;;16.84;83.45;99827.34;4914429;29;20047;-46
2023/06/19 04:28:08;;;;;;;8.25;3.22;;;;;;;16.84;83.40;99824.53;4915051;29;20439;-45
2023/06/19 04:30:34;;;;;;;7.95;3.20;;;;;;;16.85;83.61;99814.97;4917537;29;20827;-45
2023/06/19 04:33:01;;;;;;;6.15;3.30;;;;;;;16.85;83.71;99824.16;4917704;29;20056;-46
2023/06/19 04:35:28;;;;;;;10.18;4.32;;;;;;;16.83;83.84;99829.38;4917507;29;20052;-46
2023/06/19 04:37:55;;;;;;;8.32;3.85;;;;;;;16.86;83.76;99827.75;4917899;29;20127;-46
2023/06/19 04:40:22;;;;;;;8.10;3.58;;;;;;;16.86;83.95;99830.53;4917503;29;20056;-46
2023/06/19 04:42:49;;;;;;;8.88;3.55;;;;;;;16.88;83.95;99830.94;4917524;29;20059;-47
2023/06/19 04:45:16;;;;;;;7.60;2.80;;;;;;;16.89;84.04;99838.13;4909290;29;20055;-46
2023/06/19 04:47:44;;;;;;;9.57;3.83;;;;;;;16.89;83.95;99826.94;4916717;29;20130;-45
2023/06/19 04:50:23;;;;;;;8.35;3.05;;;;;;;16.89;83.91;99832.53;4917390;29;20101;-47
2023/06/19 04:52:50;;;;;;;10.57;3.80;;;;;;;16.89;83.84;99832.53;4917370;29;20082;-46
2023/06/19 04:55:18;;;;;;;9.10;3.25;;;;;;;16.90;83.92;99834.91;4917309;29;20040;-46
2023/06/19 04:57:45;;;;;;;6.70;3.95;;;;;;;16.89;83.74;99827.72;4917067;29;20044;-46
2023/06/19 05:00:14;;;;;;;9.20;2.95;;;;;;;16.89;83.63;99829.72;4912777;29;20052;-46
2023/06/19 05:02:43;;;;;;;6.55;3.03;;;;;;;16.88;83.83;99825.34;4915891;29;20063;-46
2023/06/19 05:05:10;;;;;;;6.40;2.50;;;;;;;16.88;83.63;99828.13;4917329;29;20040;-46
2023/06/19 05:07:38;;;;;;;6.38;2.65;;;;;;;16.88;83.59;99830.94;4917430;29;20446;-45
2023/06/19 05:10:06;;;;;;;5.72;2.50;;;;;;;16.90;83.62;99836.91;4917061;29;20136;-46
2023/06/19 05:12:34;;;;;;;4.35;2.63;;;;;;;16.89;83.62;99832.53;4916925;29;20562;-46
2023/06/19 05:15:02;;;;;;;7.15;2.75;;;;;;;16.87;83.80;99835.72;4915596;29;20450;-45
2023/06/19 05:17:29;;;;;;;7.28;3.35;;;;;;;16.86;83.55;99844.53;4917137;29;20044;-47
2023/06/19 05:19:56;;;;;;;11.73;3.33;;;;;;;16.90;83.81;99836.91;4907862;29;20111;-48
2023/06/19 05:22:23;;;;;;;9.68;3.35;;;;;;;16.90;83.82;99836.91;4899901;29;20103;-46
2023/06/19 05:24:50;;;;;;;6.80;3.08;;;;;;;16.89;83.70;99833.28;4916936;29;20062;-46
2023/06/19 05:27:17;;;;;;;9.80;3.38;;;;;;;16.89;83.64;99838.13;4916890;29;20080;-46
2023/06/19 05:29:44;;;;;;;11.25;3.65;;;;;;;16.89;83.72;99838.88;4916680;29;20064;-45
2023/06/19 05:32:11;;;;;;;5.70;2.38;;;;;;;16.90;83.56;99845.28;4916581;29;20380;-46
2023/06/19 05:34:37;;;;;;;5.07;2.92;;;;;;;16.86;83.85;99839.75;4915794;29;20055;-46
2023/06/19 05:37:05;;;;;;;7.20;2.92;;;;;;;16.85;83.81;99843.72;4914044;29;20048;-47
2023/06/19 05:39:31;;;;;;;11.70;2.92;;;;;;;16.85;83.79;99837.34;4916461;29;20072;-45
2023/06/19 05:41:58;;;;;;;7.22;2.35;;;;;;;16.83;83.66;99842.53;4916303;29;20099;-45
2023/06/19 05:44:25;;;;;;;9.82;2.72;;;;;;;16.83;83.92;99836.94;4915795;29;20498;-46
2023/06/19 05:46:52;;;;;;;5.18;3.08;;;;;;;16.86;83.87;99845.31;4916389;29;20051;-46
2023/06/19 05:49:19;;;;;;;5.15;2.50;;;;;;;16.87;83.90;99840.50;4916512;29;20052;-45
2023/06/19 05:51:46;;;;;;;3.50;2.58;;;;;;;16.91;83.73;99841.28;4915274;29;20138;-45
2023/06/19 05:54:12;;;;;;;6.28;2.95;;;;;;;16.94;84.11;99846.84;4916259;29;20044;-46
2023/06/19 05:56:39;;;;;;;5.20;3.25;;;;;;;16.95;84.18;99842.06;4916035;29;20131;-45
2023/06/19 05:59:07;;;;;;;5.07;2.40;;;;;;;16.99;84.00;99838.03;4916109;29;20050;-45
2023/06/19 06:01:36;;;;;;;6.88;2.78;;;;;;;16.99;83.98;99842.84;4915777;29;20506;-46
2023/06/19 06:04:03;;;;;;;5.95;3.30;;;;;;;17.06;83.81;99837.19;4916166;29;20058;-48
2023/06/19 06:06:30;;;;;;;7.97;2.42;;;;;;;17.08;83.63;99845.94;4916034;29;20046;-45
2023/06/19 06:08:57;;;;;;;6.53;2.75;;;;;;;17.14;83.68;99841.53;4915289;29;20048;-45
2023/06/19 06:11:24;;;;;;;6.70;2.42;;;;;;;17.19;83.67;99841.06;4915915;29;20662;-47
2023/06/19 06:13:50;;;;;;;9.45;2.85;;;;;;;17.25;83.54;99845.03;4914858;29;20044;-46
2023/06/19 06:16:17;;;;;;;7.35;3.30;;;;;;;17.30;83.72;99839.00;4903048;29;20163;-46
2023/06/19 06:18:45;;;;;;;5.57;2.70;;;;;;;17.36;83.47;99834.56;4915802;29;20052;-49
2023/06/19 06:21:15;;;;;;;10.13;2.40;;;;;;;17.42;83.12;99841.28;4903601;29;20044;-46
2023/06/19 06:23:44;;;;;;;8.55;2.63;;;;;;;17.46;83.28;99850.44;4915635;29;20055;-45
2023/06/19 06:26:12;;;;;;;8.45;2.92;;;;;;;17.50;82.92;99842.03;4915050;29;20091;-45
2023/06/19 06:28:39;;;;;;;6.70;2.22;;;;;;;17.52;82.77;99854.41;4915772;29;20044;-46
2023/06/19 06:31:06;;;;;;;6.75;2.58;;;;;;;17.57;82.75;99853.19;4915788;29;20123;-47
2023/06/19 06:33:33;;;;;;;9.00;2.65;;;;;;;17.59;82.49;99854.34;4915381;29;20582;-48
2023/06/19 06:36:00;;;;;;;5.18;2.47;;;;;;;17.67;82.31;99854.28;4915520;29;20083;-46
2023/06/19 06:38:27;;;;;;;5.85;2.88;;;;;;;17.71;82.23;99855.06;4915501;29;20108;-46
2023/06/19 06:40:54;;;;;;;6.15;2.60;;;;;;;17.81;82.20;99865.34;4915773;29;20116;-47
2023/06/19 06:43:21;;;;;;;5.18;2.05;;;;;;;17.93;81.84;99868.41;4912986;29;20152;-46
2023/06/19 06:45:48;;;;;;;5.20;2.00;;;;;;;18.06;81.27;99868.66;4915496;29;20044;-48
2023/06/19 06:48:15;;;;;;;4.15;1.88;;;;;;;18.13;80.71;99874.22;4915331;29;20071;-47
2023/06/19 06:50:43;;;;;;;5.07;1.75;;;;;;;18.21;80.43;99875.72;4913773;29;20123;-46
2023/06/19 06:53:10;;;;;;;7.63;1.90;;;;;;;18.31;79.98;99869.19;4915240;29;20131;-46
2023/06/19 06:55:37;;;;;;;4.47;2.10;;;;;;;18.39;79.50;99870.69;4915318;29;20143;-48
2023/06/19 06:58:05;;;;;;;6.40;2.45;;;;;;;18.46;79.34;99873.41;4915059;29;20072;-47
2023/06/19 07:00:32;;;;;;;4.90;1.83;;;;;;;18.54;79.46;99880.53;4914320;29;20059;-48
2023/06/19 07:02:58;;;;;;;4.82;1.80;;;;;;;18.55;78.93;99875.75;4914787;29;20406;-46
2023/06/19 07:05:26;;;;;;;6.50;1.77;;;;;;;18.50;79.02;99882.63;4915334;29;20048;-49
2023/06/19 07:07:54;;;;;;;6.25;2.05;;;;;;;18.50;78.53;99888.22;4912178;29;20039;-46
2023/06/19 07:10:20;;;;;;;4.65;1.70;;;;;;;18.55;78.53;99879.34;4915000;29;20052;-46
2023/06/19 07:12:48;;;;;;;2.30;1.52;;;;;;;18.61;77.91;99874.06;4914971;29;20143;-46
2023/06/19 07:15:15;;;;;;;2.15;1.27;;;;;;;18.59;77.68;99870.88;4914319;29;20048;-48
2023/06/19 07:17:46;;;;;;;2.50;1.60;;;;;;;18.54;77.21;99883.34;4910593;29;20044;-46
2023/06/19 07:20:14;;;;;;;3.13;1.47;;;;;;;18.48;76.82;99881.44;4897969;29;20146;-46
2023/06/19 07:22:42;;;;;;;9.73;2.15;;;;;;;18.46;76.76;99884.63;4914733;29;20444;-46
2023/06/19 07:25:11;;;;;;;2.97;1.30;;;;;;;18.60;77.02;99884.47;4914747;29;20056;-46
2023/06/19 07:27:40;;;;;;;8.85;1.83;;;;;;;18.80;76.96;99882.59;4914997;29;20082;-46
2023/06/19 07:30:08;;;;;;;1.75;1.40;;;;;;;19.01;77.26;99889.16;4914922;29;20048;-46
2023/06/19 07:32:34;;;;;;;5.80;1.50;;;;;;;19.16;77.33;99894.13;4898004;29;20059;-46
2023/06/19 07:35:01;;;;;;;7.47;2.20;;;;;;;19.27;77.02;99891.16;4913782;29;20467;-47
2023/06/19 07:37:28;;;;;;;4.45;1.48;;;;;;;19.32;76.27;99896.28;4914765;29;20048;-46
2023/06/19 07:39:55;;;;;;;2.35;0.90;;;;;;;19.43;75.98;99892.09;4914841;29;20048;-46
2023/06/19 07:42:22;;;;;;;1.88;1.20;;;;;;;19.71;76.14;99895.66;4913519;29;20106;-46
2023/06/19 07:44:49;;;;;;;3.20;1.23;;;;;;;20.07;76.42;99907.84;4914499;29;20487;-46
2023/06/19 07:47:18;;;;;;;2.88;1.27;;;;;;;20.61;76.27;99897.16;4915043;29;20063;-51
2023/06/19 07:49:45;;;;;;;2.42;1.27;;;;;;;21.22;75.73;99898.25;4914793;29;20051;-47
2023/06/19 07:52:13;;;;;;;2.35;1.20;;;;;;;21.87;73.60;99891.88;4913680;29;20490;-47
2023/06/19 07:54:54;;;;;;;3.47;1.15;;;;;;;22.62;71.61;99897.00;4914563;29;20530;-46
2023/06/19 07:57:22;;;;;;;6.35;2.38;;;;;;;23.35;68.94;99905.25;4914699;29;20051;-46
2023/06/19 07:59:49;;;;;;;5.85;1.60;;;;;;;23.95;66.28;99897.63;4914389;29;20483;-47
2023/06/19 08:02:17;;;;;;;1.65;1.20;;;;;;;24.43;63.51;99902.00;4916571;29;20060;-47
2023/06/19 08:04:46;;;;;;;6.75;1.52;;;;;;;25.02;61.52;99908.72;4916104;29;20507;-48
2023/06/19 08:07:13;;;;;;;3.50;1.40;;;;;;;25.45;59.64;99917.09;4918053;29;20056;-44
2023/06/19 08:09:40;;;;;;;2.28;0.98;;;;;;;25.85;57.95;99903.69;4917216;29;20175;-46
2023/06/19 08:12:07;;;;;;;3.65;1.40;;;;;;;26.23;56.23;99911.03;4918427;29;20044;-46
2023/06/19 08:14:34;;;;;;;1.67;1.08;;;;;;;26.05;54.63;99908.94;4917848;29;20062;-45
2023/06/19 08:17:01;;;;;;;3.72;1.38;;;;;;;26.31;54.28;99909.44;4915811;29;20052;-45
2023/06/19 08:19:28;;;;;;;6.85;1.35;;;;;;;26.34;53.61;99908.50;4917755;29;20188;-44
2023/06/19 08:21:54;;;;;;;3.88;1.38;;;;;;;26.73;52.69;99913.19;4918133;29;20494;-44
2023/06/19 08:24:21;;;;;;;3.80;1.00;;;;;;;27.25;51.16;99919.72;4917933;29;20052;-44
2023/06/19 08:26:50;;;;;;;2.03;1.23;;;;;;;27.68;50.29;99920.03;4916884;29;20044;-48
2023/06/19 08:29:18;;;;;;;4.18;1.50;;;;;;;28.09;49.52;99918.38;4905750;29;20052;-44
2023/06/19 08:31:45;;;;;;;2.58;0.90;;;;;;;28.31;48.08;99912.34;4916304;29;20138;-44
2023/06/19 08:34:12;;;;;;;1.25;0.90;;;;;;;27.57;47.80;99910.44;4917504;29;20054;-44
2023/06/19 08:36:39;;;;;;;2.40;1.50;;;;;;;27.05;48.09;99911.75;4917485;29;20105;-44
2023/06/19 08:39:07;;;;;;;3.92;0.90;;;;;;;27.08;47.92;99911.59;4917744;29;20607;-44
2023/06/19 08:41:37;;;;;;;4.93;1.10;;;;;;;27.47;47.38;99917.44;4916990;29;20139;-45
2023/06/19 08:44:05;;;;;;;3.00;1.23;;;;;;;27.83;46.35;99914.41;4907545;29;20464;-44
2023/06/19 08:46:31;;;;;;;3.38;1.17;;;;;;;28.30;46.14;99916.50;4917385;29;20036;-44
2023/06/19 08:49:00;;;;;;;3.38;1.13;;;;;;;28.50;45.08;99924.38;4917434;29;20048;-45
2023/06/19 08:51:28;;;;;;;4.03;1.73;;;;;;;28.45;44.02;99917.31;4915280;29;20104;-44
2023/06/19 08:53:59;;;;;;;4.93;1.42;;;;;;;28.67;43.66;99920.63;4913278;29;20104;-45
2023/06/19 08:56:26;;;;;;;5.38;2.08;;;;;;;28.48;43.20;99918.41;4916105;29;20048;-44
2023/06/19 08:58:53;;;;;;;5.22;2.00;;;;;;;28.34;42.87;99914.22;4916839;29;20060;-44
2023/06/19 09:01:20;;;;;;;3.17;1.20;;;;;;;28.43;42.72;99917.03;4916881;29;20056;-45
2023/06/19 09:03:51;;;;;;;1.90;1.10;;;;;;;28.37;42.71;99914.06;4916545;29;20844;-45
2023/06/19 09:06:20;;;;;;;3.80;1.00;;;;;;;28.03;42.79;99906.09;4917581;29;20096;-44
2023/06/19 09:08:57;;;;;;;2.15;1.08;;;;;;;28.22;43.77;99910.38;4916936;29;20528;-44
2023/06/19 09:11:24;;;;;;;2.67;0.85;;;;;;;28.56;42.47;99908.19;4904898;29;20056;-44
2023/06/19 09:13:58;;;;;;;2.90;0.90;;;;;;;28.41;42.02;99910.25;4915147;29;20100;-44
2023/06/19 09:16:37;;;;;;;2.38;1.10;;;;;;;28.28;41.82;99902.72;4916363;29;20056;-48
2023/06/19 09:19:04;;;;;;;3.60;1.15;;;;;;;28.44;40.71;99912.09;4917031;29;20414;-45
2023/06/19 09:21:31;;;;;;;2.78;1.08;;;;;;;28.23;40.92;99914.00;4916768;29;20052;-44
2023/06/19 09:24:05;;;;;;;3.85;1.25;;;;;;;27.73;41.02;99904.34;4916735;29;20032;-44
2023/06/19 09:26:34;;;;;;;3.15;0.90;;;;;;;27.58;41.70;99912.03;4916642;29;20052;-44
2023/06/19 09:29:18;;;;;;;4.68;1.13;;;;;;;27.81;41.35;99902.72;4916975;29;20100;-44
2023/06/19 09:31:47;;;;;;;2.25;0.80;;;;;;;28.41;40.95;99901.69;4914468;29;20517;-44
2023/06/19 09:34:14;;;;;;;5.13;1.55;;;;;;;28.56;40.24;99913.91;4915694;29;20051;-44
2023/06/19 09:36:41;;;;;;;3.55;1.25;;;;;;;28.85;39.88;99911.91;4916487;29;20064;-44
2023/06/19 09:39:11;;;;;;;2.22;0.90;;;;;;;28.68;39.36;99916.50;4916525;29;20054;-45
2023/06/19 09:41:40;;;;;;;2.70;0.98;;;;;;;27.52;40.69;99902.56;4914551;29;20052;-44
2023/06/19 09:44:12;;;;;;;2.20;0.75;;;;;;;26.79;41.80;99905.66;4906769;29;20048;-44
2023/06/19 09:46:44;;;;;;;2.90;1.10;;;;;;;26.55;42.41;99891.31;4916473;29;20701;-44
2023/06/19 09:49:12;;;;;;;4.30;1.52;;;;;;;26.03;43.47;99900.88;4916354;29;20137;-44
2023/06/19 09:51:42;;;;;;;2.60;1.48;;;;;;;25.27;44.29;99891.50;4915582;29;20812;-44
2023/06/19 09:54:10;;;;;;;2.92;1.10;;;;;;;25.02;45.29;99883.22;4916399;29;20058;-44
2023/06/19 09:56:37;;;;;;;2.95;1.42;;;;;;;25.90;44.38;99894.56;4915890;29;20490;-44
2023/06/19 09:59:05;;;;;;;1.90;1.80;;;;;;;26.85;43.49;99902.94;4916207;29;20067;-44
2023/06/19 10:01:32;;;;;;;3.38;2.08;;;;;;;27.53;42.70;99901.31;4915680;29;20070;-44
2023/06/19 10:04:08;;;;;;;1.65;0.75;;;;;;;27.93;41.70;99901.72;4899850;29;20064;-44
2023/06/19 10:06:45;;;;;;;2.78;1.00;;;;;;;27.26;42.37;99898.56;4903555;29;20487;-44
2023/06/19 10:09:14;;;;;;;3.03;1.10;;;;;;;27.04;43.37;99899.59;4895120;29;20478;-43
2023/06/19 10:11:51;;;;;;;1.83;0.90;;;;;;;27.30;42.63;99899.94;4915903;29;20055;-43
2023/06/19 10:14:21;;;;;;;1.75;1.05;;;;;;;27.68;41.69;99887.97;4913720;29;20067;-44
2023/06/19 10:16:48;;;;;;;2.53;1.00;;;;;;;28.11;41.23;99895.13;4915596;29;20075;-44
2023/06/19 10:19:17;;;;;;;3.70;1.17;;;;;;;28.38;40.65;99897.75;4915692;29;20044;-44
2023/06/19 10:21:48;;;;;;;5.18;1.45;;;;;;;28.17;41.10;99891.13;4915745;29;20491;-44
2023/06/19 10:24:19;;;;;;;3.70;0.95;;;;;;;27.91;41.61;99887.16;4914940;29;20099;-44
2023/06/19 10:26:58;;;;;;;1.00;0.88;;;;;;;27.67;42.34;99890.00;4915683;29;20086;-44
2023/06/19 10:29:26;;;;;;;2.22;1.10;;;;;;;27.53;42.62;99889.94;4915778;29;20052;-44
2023/06/19 10:31:54;;;;;;;1.55;0.80;;;;;;;27.05;43.08;99894.69;4915802;29;20402;-44
2023/06/19 10:34:21;;;;;;;7.82;1.23;;;;;;;26.36;43.80;99895.41;4915370;29;20056;-46
2023/06/19 10:36:47;;;;;;;3.08;1.00;;;;;;;25.76;44.30;99889.47;4915276;29;20044;-43
2023/06/19 10:39:16;;;;;;;2.10;1.08;;;;;;;25.36;45.36;99891.56;4915606;29;20040;-43
2023/06/19 10:41:43;;;;;;;3.67;1.13;;;;;;;25.17;45.60;99889.91;4914021;29;20494;-44
2023/06/19 10:44:12;;;;;;;2.63;1.13;;;;;;;25.10;45.50;99887.38;4915453;29;20495;-44
2023/06/19 10:46:40;;;;;;;4.45;1.00;;;;;;;25.26;45.36;99889.94;4914982;29;20412;-44
2023/06/19 10:49:10;;;;;;;1.33;0.98;;;;;;;25.19;45.79;99891.00;4915406;29;20043;-44
2023/06/19 10:51:38;;;;;;;3.08;0.90;;;;;;;25.00;46.06;99899.88;4915376;29;20139;-43
2023/06/19 10:54:06;;;;;;;1.00;0.82;;;;;;;25.15;46.25;99898.09;4915289;29;20052;-46
2023/06/19 10:56:33;;;;;;;4.22;0.90;;;;;;;25.02;46.22;99888.91;4915174;29;20044;-45
2023/06/19 10:59:05;;;;;;;3.35;1.20;;;;;;;24.82;45.84;99894.91;4903770;29;20488;-43
2023/06/19 11:01:38;;;;;;;2.22;1.05;;;;;;;24.50;46.11;99898.91;4902534;29;20075;-47
2023/06/19 11:04:07;;;;;;;1.60;0.90;;;;;;;24.21;46.17;99892.69;4915468;29;20048;-44
2023/06/19 11:06:35;;;;;;;1.38;0.70;;;;;;;24.08;46.80;99884.28;4915283;29;20060;-44
2023/06/19 11:09:04;;;;;;;3.40;1.00;;;;;;;24.31;47.00;99897.19;4914607;29;20476;-43
2023/06/19 11:11:35;;;;;;;1.98;1.08;;;;;;;24.60;46.87;99880.72;4914128;29;20621;-44
2023/06/19 11:14:02;;;;;;;2.13;0.60;;;;;;;24.76;46.37;99883.34;4913161;29;20052;-49
2023/06/19 11:16:29;;;;;;;3.70;1.50;;;;;;;24.81;46.22;99884.81;4914120;29;20067;-44
2023/06/19 11:19:00;;;;;;;2.15;0.85;;;;;;;24.84;46.67;99872.56;4914791;29;20052;-44
2023/06/19 11:21:37;;;;;;;2.65;0.80;;;;;;;24.94;47.06;99874.19;4914867;29;20052;-46
2023/06/19 11:24:12;;;;;;;2.63;0.88;;;;;;;25.05;47.47;99871.75;4914882;29;20052;-46
2023/06/19 11:26:43;;;;;;;1.50;0.65;;;;;;;24.81;46.13;99887.66;4913775;29;20056;-46
2023/06/19 11:29:33;;;;;;;1.27;0.88;;;;;;;24.38;46.04;99879.97;4914998;29;20047;-46
2023/06/19 11:32:13;;;;;;;4.00;0.82;;;;;;;24.40;46.08;99883.13;4906762;29;20115;-46
2023/06/19 11:34:40;;;;;;;1.10;0.77;;;;;;;24.46;46.42;99864.31;4915127;29;20059;-47
2023/06/19 11:37:14;;;;;;;1.50;0.85;;;;;;;24.65;46.21;99863.16;4899478;29;20499;-47